sensor_id;sensor_type;location;lat;lon;timestamp;pressure;altitude;pressure_sealevel;temperature;humidity
16613;BME280;8419;52.358;9.752;2023-05-08T00:02:38;101684.00;;;18.79;36.95
16613;BME280;8419;52.358;9.752;2023-05-08T00:05:24;101678.00;;;18.59;37.30
16613;BME280;8419;52.358;9.752;2023-05-08T00:08:09;101672.00;;;18.56;37.40
16613;BME280;8419;52.358;9.752;2023-05-08T00:10:55;101678.00;;;18.50;37.58
16613;BME280;8419;52.358;9.752;2023-05-08T00:13:40;101676.00;;;18.36;37.77
16613;BME280;8419;52.358;9.752;2023-05-08T00:16:26;101676.00;;;18.52;37.50
16613;BME280;8419;52.358;9.752;2023-05-08T00:19:11;101669.00;;;18.47;37.59
16613;BME280;8419;52.358;9.752;2023-05-08T00:21:56;101676.00;;;18.55;37.48
16613;BME280;8419;52.358;9.752;2023-05-08T00:24:42;101675.00;;;18.30;37.94
16613;BME280;8419;52.358;9.752;2023-05-08T00:27:27;101676.00;;;18.35;37.80
16613;BME280;8419;52.358;9.752;2023-05-08T00:30:13;101673.00;;;18.38;37.83
16613;BME280;8419;52.358;9.752;2023-05-08T00:32:59;101682.00;;;18.26;38.04
16613;BME280;8419;52.358;9.752;2023-05-08T00:35:45;101683.00;;;18.22;38.09
16613;BME280;8419;52.358;9.752;2023-05-08T00:38:31;101674.00;;;18.32;38.00
16613;BME280;8419;52.358;9.752;2023-05-08T00:41:16;101683.00;;;18.28;38.04
16613;BME280;8419;52.358;9.752;2023-05-08T00:44:02;101685.00;;;18.13;38.30
16613;BME280;8419;52.358;9.752;2023-05-08T00:46:48;101687.00;;;18.16;38.23
16613;BME280;8419;52.358;9.752;2023-05-08T00:49:35;101690.00;;;18.26;38.03
16613;BME280;8419;52.358;9.752;2023-05-08T00:52:21;101681.00;;;18.36;37.90
16613;BME280;8419;52.358;9.752;2023-05-08T00:55:07;101687.00;;;18.21;38.15
16613;BME280;8419;52.358;9.752;2023-05-08T00:57:53;101677.00;;;18.37;37.95
16613;BME280;8419;52.358;9.752;2023-05-08T01:00:38;101678.00;;;18.53;37.54
16613;BME280;8419;52.358;9.752;2023-05-08T01:03:25;101680.00;;;18.48;37.61
16613;BME280;8419;52.358;9.752;2023-05-08T01:06:13;101677.00;;;18.50;37.61
16613;BME280;8419;52.358;9.752;2023-05-08T01:08:58;101675.00;;;18.45;37.64
16613;BME280;8419;52.358;9.752;2023-05-08T01:11:51;101664.00;;;18.45;37.66
16613;BME280;8419;52.358;9.752;2023-05-08T01:14:45;101668.00;;;18.29;37.95
16613;BME280;8419;52.358;9.752;2023-05-08T01:17:42;101662.00;;;18.41;37.74
16613;BME280;8419;52.358;9.752;2023-05-08T01:20:37;101667.00;;;18.39;37.72
16613;BME280;8419;52.358;9.752;2023-05-08T01:23:40;101664.00;;;18.34;37.80
16613;BME280;8419;52.358;9.752;2023-05-08T01:26:46;101660.00;;;18.27;37.76
16613;BME280;8419;52.358;9.752;2023-05-08T01:33:05;101662.00;;;18.06;38.16
16613;BME280;8419;52.358;9.752;2023-05-08T01:35:57;101662.00;;;18.14;37.97
16613;BME280;8419;52.358;9.752;2023-05-08T01:38:54;101653.00;;;18.13;37.98
16613;BME280;8419;52.358;9.752;2023-05-08T01:41:49;101657.00;;;17.86;38.48
16613;BME280;8419;52.358;9.752;2023-05-08T01:44:43;101660.00;;;18.06;38.06
16613;BME280;8419;52.358;9.752;2023-05-08T01:47:35;101662.00;;;17.95;38.18
16613;BME280;8419;52.358;9.752;2023-05-08T01:50:29;101661.00;;;17.87;38.32
16613;BME280;8419;52.358;9.752;2023-05-08T01:53:20;101660.00;;;17.83;38.35
16613;BME280;8419;52.358;9.752;2023-05-08T01:56:13;101666.00;;;17.70;38.56
16613;BME280;8419;52.358;9.752;2023-05-08T01:59:02;101665.00;;;17.74;38.46
16613;BME280;8419;52.358;9.752;2023-05-08T02:01:53;101667.00;;;17.73;38.41
16613;BME280;8419;52.358;9.752;2023-05-08T02:04:42;101664.00;;;17.71;38.42
16613;BME280;8419;52.358;9.752;2023-05-08T02:07:29;101668.00;;;17.73;38.34
16613;BME280;8419;52.358;9.752;2023-05-08T02:10:16;101668.00;;;17.65;38.45
16613;BME280;8419;52.358;9.752;2023-05-08T02:13:05;101662.00;;;17.57;38.56
16613;BME280;8419;52.358;9.752;2023-05-08T02:15:53;101655.00;;;17.57;38.50
16613;BME280;8419;52.358;9.752;2023-05-08T02:18:47;101658.00;;;17.63;38.43
16613;BME280;8419;52.358;9.752;2023-05-08T02:21:36;101660.00;;;17.43;38.74
16613;BME280;8419;52.358;9.752;2023-05-08T02:24:23;101656.00;;;17.44;38.64
16613;BME280;8419;52.358;9.752;2023-05-08T02:27:10;101663.00;;;17.47;38.60
16613;BME280;8419;52.358;9.752;2023-05-08T02:29:56;101666.00;;;17.48;38.57
16613;BME280;8419;52.358;9.752;2023-05-08T02:32:44;101666.00;;;17.55;38.39
16613;BME280;8419;52.358;9.752;2023-05-08T02:35:32;101667.00;;;17.60;38.26
16613;BME280;8419;52.358;9.752;2023-05-08T02:38:21;101662.00;;;17.62;38.21
16613;BME280;8419;52.358;9.752;2023-05-08T02:41:08;101664.00;;;17.49;38.37
16613;BME280;8419;52.358;9.752;2023-05-08T02:43:56;101663.00;;;17.37;38.63
16613;BME280;8419;52.358;9.752;2023-05-08T02:46:47;101670.00;;;17.41;38.52
16613;BME280;8419;52.358;9.752;2023-05-08T02:49:45;101670.00;;;17.33;38.72
16613;BME280;8419;52.358;9.752;2023-05-08T02:52:36;101671.00;;;17.35;38.70
16613;BME280;8419;52.358;9.752;2023-05-08T02:55:32;101663.00;;;17.28;38.74
16613;BME280;8419;52.358;9.752;2023-05-08T02:58:21;101668.00;;;17.24;38.80
16613;BME280;8419;52.358;9.752;2023-05-08T03:01:15;101666.00;;;17.23;38.79
16613;BME280;8419;52.358;9.752;2023-05-08T03:04:06;101660.00;;;17.26;38.70
16613;BME280;8419;52.358;9.752;2023-05-08T03:06:55;101660.00;;;17.26;38.67
16613;BME280;8419;52.358;9.752;2023-05-08T03:09:46;101659.00;;;17.27;38.66
16613;BME280;8419;52.358;9.752;2023-05-08T03:12:35;101648.00;;;17.36;38.48
16613;BME280;8419;52.358;9.752;2023-05-08T03:15:26;101652.00;;;17.24;38.62
16613;BME280;8419;52.358;9.752;2023-05-08T03:18:15;101650.00;;;17.23;38.65
16613;BME280;8419;52.358;9.752;2023-05-08T03:21:04;101649.00;;;17.27;38.56
16613;BME280;8419;52.358;9.752;2023-05-08T03:23:53;101647.00;;;17.37;38.39
16613;BME280;8419;52.358;9.752;2023-05-08T03:26:42;101647.00;;;17.28;38.52
16613;BME280;8419;52.358;9.752;2023-05-08T03:29:28;101644.00;;;17.26;38.54
16613;BME280;8419;52.358;9.752;2023-05-08T03:32:15;101647.00;;;17.23;38.52
16613;BME280;8419;52.358;9.752;2023-05-08T03:35:01;101645.00;;;17.23;38.54
16613;BME280;8419;52.358;9.752;2023-05-08T03:37:48;101646.00;;;17.13;38.73
16613;BME280;8419;52.358;9.752;2023-05-08T03:40:34;101648.00;;;17.16;38.62
16613;BME280;8419;52.358;9.752;2023-05-08T03:43:22;101645.00;;;17.11;38.71
16613;BME280;8419;52.358;9.752;2023-05-08T03:46:10;101644.00;;;17.16;38.61
16613;BME280;8419;52.358;9.752;2023-05-08T03:48:56;101643.00;;;17.19;38.55
16613;BME280;8419;52.358;9.752;2023-05-08T03:51:44;101648.00;;;17.19;38.48
16613;BME280;8419;52.358;9.752;2023-05-08T03:54:30;101640.00;;;17.14;38.55
16613;BME280;8419;52.358;9.752;2023-05-08T03:57:16;101636.00;;;17.15;38.53
16613;BME280;8419;52.358;9.752;2023-05-08T04:00:07;101646.00;;;17.16;38.55
16613;BME280;8419;52.358;9.752;2023-05-08T04:03:09;101641.00;;;17.18;38.58
16613;BME280;8419;52.358;9.752;2023-05-08T04:06:02;101642.00;;;17.17;38.61
16613;BME280;8419;52.358;9.752;2023-05-08T04:08:54;101644.00;;;17.26;38.44
16613;BME280;8419;52.358;9.752;2023-05-08T04:11:51;101646.00;;;17.19;38.56
16613;BME280;8419;52.358;9.752;2023-05-08T04:14:46;101644.00;;;17.18;38.66
16613;BME280;8419;52.358;9.752;2023-05-08T04:17:39;101649.00;;;17.16;38.85
16613;BME280;8419;52.358;9.752;2023-05-08T04:20:28;101655.00;;;17.16;38.99
16613;BME280;8419;52.358;9.752;2023-05-08T04:23:20;101659.00;;;17.36;38.85
16613;BME280;8419;52.358;9.752;2023-05-08T04:26:07;101656.00;;;17.36;38.96
16613;BME280;8419;52.358;9.752;2023-05-08T04:28:56;101658.00;;;17.37;38.91
16613;BME280;8419;52.358;9.752;2023-05-08T04:31:42;101648.00;;;17.50;38.84
16613;BME280;8419;52.358;9.752;2023-05-08T04:34:29;101653.00;;;17.47;38.90
16613;BME280;8419;52.358;9.752;2023-05-08T04:37:24;101650.00;;;17.55;38.85
16613;BME280;8419;52.358;9.752;2023-05-08T04:40:12;101658.00;;;17.61;38.67
16613;BME280;8419;52.358;9.752;2023-05-08T04:42:58;101666.00;;;17.52;38.73
16613;BME280;8419;52.358;9.752;2023-05-08T04:45:43;101676.00;;;17.48;38.68
16613;BME280;8419;52.358;9.752;2023-05-08T04:48:29;101678.00;;;17.55;38.48
16613;BME280;8419;52.358;9.752;2023-05-08T04:51:18;101671.00;;;17.58;38.42
16613;BME280;8419;52.358;9.752;2023-05-08T04:54:05;101677.00;;;17.56;38.43
16613;BME280;8419;52.358;9.752;2023-05-08T04:56:51;101679.00;;;17.44;38.62
16613;BME280;8419;52.358;9.752;2023-05-08T04:59:37;101669.00;;;17.37;38.68
16613;BME280;8419;52.358;9.752;2023-05-08T05:02:22;101668.00;;;17.45;38.53
16613;BME280;8419;52.358;9.752;2023-05-08T05:05:09;101670.00;;;17.49;38.44
16613;BME280;8419;52.358;9.752;2023-05-08T05:07:55;101676.00;;;17.51;38.39
16613;BME280;8419;52.358;9.752;2023-05-08T05:10:41;101682.00;;;17.51;38.35
16613;BME280;8419;52.358;9.752;2023-05-08T05:13:27;101678.00;;;17.36;38.60
16613;BME280;8419;52.358;9.752;2023-05-08T05:16:13;101679.00;;;17.40;38.60
16613;BME280;8419;52.358;9.752;2023-05-08T05:18:58;101672.00;;;17.43;38.59
16613;BME280;8419;52.358;9.752;2023-05-08T05:21:44;101667.00;;;17.49;38.46
16613;BME280;8419;52.358;9.752;2023-05-08T05:24:30;101669.00;;;17.46;38.56
16613;BME280;8419;52.358;9.752;2023-05-08T05:27:16;101671.00;;;17.42;38.65
16613;BME280;8419;52.358;9.752;2023-05-08T05:30:01;101678.00;;;17.46;38.53
16613;BME280;8419;52.358;9.752;2023-05-08T05:32:47;101670.00;;;17.42;38.72
16613;BME280;8419;52.358;9.752;2023-05-08T05:35:33;101675.00;;;17.46;38.71
16613;BME280;8419;52.358;9.752;2023-05-08T05:38:18;101686.00;;;17.57;38.48
16613;BME280;8419;52.358;9.752;2023-05-08T05:41:04;101685.00;;;17.64;38.32
16613;BME280;8419;52.358;9.752;2023-05-08T05:43:50;101695.00;;;17.75;38.21
16613;BME280;8419;52.358;9.752;2023-05-08T05:46:36;101688.00;;;17.82;38.11
16613;BME280;8419;52.358;9.752;2023-05-08T05:49:21;101685.00;;;17.75;38.26
16613;BME280;8419;52.358;9.752;2023-05-08T05:52:06;101689.00;;;17.76;38.28
16613;BME280;8419;52.358;9.752;2023-05-08T05:54:51;101701.00;;;17.88;38.19
16613;BME280;8419;52.358;9.752;2023-05-08T05:57:37;101694.00;;;17.83;38.28
16613;BME280;8419;52.358;9.752;2023-05-08T06:00:22;101693.00;;;17.96;38.18
16613;BME280;8419;52.358;9.752;2023-05-08T06:03:09;101695.00;;;17.98;38.18
16613;BME280;8419;52.358;9.752;2023-05-08T06:05:54;101698.00;;;18.02;38.13
16613;BME280;8419;52.358;9.752;2023-05-08T06:08:39;101694.00;;;18.01;38.16
16613;BME280;8419;52.358;9.752;2023-05-08T06:11:25;101690.00;;;17.97;38.34
16613;BME280;8419;52.358;9.752;2023-05-08T06:14:12;101699.00;;;18.18;38.05
16613;BME280;8419;52.358;9.752;2023-05-08T06:16:58;101706.00;;;18.33;37.80
16613;BME280;8419;52.358;9.752;2023-05-08T06:19:43;101709.00;;;18.34;37.84
16613;BME280;8419;52.358;9.752;2023-05-08T06:22:30;101712.00;;;18.34;37.90
16613;BME280;8419;52.358;9.752;2023-05-08T06:25:15;101714.00;;;18.34;37.91
16613;BME280;8419;52.358;9.752;2023-05-08T06:28:01;101715.00;;;18.28;38.00
16613;BME280;8419;52.358;9.752;2023-05-08T06:30:48;101716.00;;;18.41;37.82
16613;BME280;8419;52.358;9.752;2023-05-08T06:33:34;101702.00;;;18.44;37.85
16613;BME280;8419;52.358;9.752;2023-05-08T06:36:20;101709.00;;;18.43;37.86
16613;BME280;8419;52.358;9.752;2023-05-08T06:39:06;101705.00;;;18.50;37.84
16613;BME280;8419;52.358;9.752;2023-05-08T06:41:52;101706.00;;;18.64;37.61
16613;BME280;8419;52.358;9.752;2023-05-08T06:44:37;101710.00;;;18.63;37.72
16613;BME280;8419;52.358;9.752;2023-05-08T06:47:27;101713.00;;;18.68;37.67
16613;BME280;8419;52.358;9.752;2023-05-08T06:50:15;101709.00;;;18.76;37.66
16613;BME280;8419;52.358;9.752;2023-05-08T06:53:00;101711.00;;;18.89;37.51
16613;BME280;8419;52.358;9.752;2023-05-08T06:55:46;101720.00;;;19.01;37.36
16613;BME280;8419;52.358;9.752;2023-05-08T06:58:32;101715.00;;;19.16;37.10
16613;BME280;8419;52.358;9.752;2023-05-08T07:01:18;101719.00;;;19.19;37.16
16613;BME280;8419;52.358;9.752;2023-05-08T07:04:04;101712.00;;;19.27;37.11
16613;BME280;8419;52.358;9.752;2023-05-08T07:06:50;101721.00;;;19.28;37.20
16613;BME280;8419;52.358;9.752;2023-05-08T07:09:37;101728.00;;;19.27;37.22
16613;BME280;8419;52.358;9.752;2023-05-08T07:12:23;101718.00;;;19.34;37.11
16613;BME280;8419;52.358;9.752;2023-05-08T07:15:41;101715.00;;;19.43;37.04
16613;BME280;8419;52.358;9.752;2023-05-08T07:18:28;101712.00;;;19.49;37.01
16613;BME280;8419;52.358;9.752;2023-05-08T07:21:14;101714.00;;;19.57;36.87
16613;BME280;8419;52.358;9.752;2023-05-08T07:24:02;101710.00;;;19.70;36.67
16613;BME280;8419;52.358;9.752;2023-05-08T07:26:47;101701.00;;;19.80;36.57
16613;BME280;8419;52.358;9.752;2023-05-08T07:29:32;101696.00;;;19.62;36.92
16613;BME280;8419;52.358;9.752;2023-05-08T07:32:19;101701.00;;;19.68;36.87
16613;BME280;8419;52.358;9.752;2023-05-08T07:35:07;101709.00;;;19.80;36.74
16613;BME280;8419;52.358;9.752;2023-05-08T07:37:56;101705.00;;;19.93;36.53
16613;BME280;8419;52.358;9.752;2023-05-08T07:40:42;101704.00;;;20.05;36.40
16613;BME280;8419;52.358;9.752;2023-05-08T07:43:28;101701.00;;;20.06;36.41
16613;BME280;8419;52.358;9.752;2023-05-08T07:46:17;101700.00;;;20.11;36.41
16613;BME280;8419;52.358;9.752;2023-05-08T07:49:03;101707.00;;;20.26;36.23
16613;BME280;8419;52.358;9.752;2023-05-08T07:51:48;101702.00;;;20.31;36.16
16613;BME280;8419;52.358;9.752;2023-05-08T07:54:34;101709.00;;;20.33;36.23
16613;BME280;8419;52.358;9.752;2023-05-08T07:57:20;101714.00;;;20.49;35.97
16613;BME280;8419;52.358;9.752;2023-05-08T08:00:08;101705.00;;;20.34;36.23
16613;BME280;8419;52.358;9.752;2023-05-08T08:02:54;101709.00;;;20.54;36.04
16613;BME280;8419;52.358;9.752;2023-05-08T08:05:41;101715.00;;;20.65;35.97
16613;BME280;8419;52.358;9.752;2023-05-08T08:08:26;101716.00;;;20.72;35.89
16613;BME280;8419;52.358;9.752;2023-05-08T08:11:12;101718.00;;;20.76;35.83
16613;BME280;8419;52.358;9.752;2023-05-08T08:13:57;101724.00;;;20.88;35.79
16613;BME280;8419;52.358;9.752;2023-05-08T08:16:44;101716.00;;;20.88;35.79
16613;BME280;8419;52.358;9.752;2023-05-08T08:19:34;101720.00;;;20.98;35.71
16613;BME280;8419;52.358;9.752;2023-05-08T08:22:19;101716.00;;;21.01;35.75
16613;BME280;8419;52.358;9.752;2023-05-08T08:25:07;101716.00;;;21.11;35.59
16613;BME280;8419;52.358;9.752;2023-05-08T08:27:52;101711.00;;;21.05;35.72
16613;BME280;8419;52.358;9.752;2023-05-08T08:30:38;101707.00;;;21.15;35.66
16613;BME280;8419;52.358;9.752;2023-05-08T08:33:23;101713.00;;;21.26;35.48
16613;BME280;8419;52.358;9.752;2023-05-08T08:36:14;101706.00;;;21.49;35.18
16613;BME280;8419;52.358;9.752;2023-05-08T08:38:59;101702.00;;;21.56;35.09
16613;BME280;8419;52.358;9.752;2023-05-08T08:41:44;101712.00;;;21.59;35.06
16613;BME280;8419;52.358;9.752;2023-05-08T08:44:30;101699.00;;;21.72;34.91
16613;BME280;8419;52.358;9.752;2023-05-08T08:47:18;101710.00;;;21.80;34.86
16613;BME280;8419;52.358;9.752;2023-05-08T08:50:08;101703.00;;;21.95;34.73
16613;BME280;8419;52.358;9.752;2023-05-08T08:53:00;101706.00;;;22.05;34.54
16613;BME280;8419;52.358;9.752;2023-05-08T08:55:49;101695.00;;;22.17;34.38
16613;BME280;8419;52.358;9.752;2023-05-08T08:58:46;101691.00;;;22.22;34.38
16613;BME280;8419;52.358;9.752;2023-05-08T09:01:37;101694.00;;;22.28;34.34
16613;BME280;8419;52.358;9.752;2023-05-08T09:04:23;101692.00;;;22.46;34.08
16613;BME280;8419;52.358;9.752;2023-05-08T09:07:11;101692.00;;;22.52;34.02
16613;BME280;8419;52.358;9.752;2023-05-08T09:09:59;101683.00;;;22.47;34.16
16613;BME280;8419;52.358;9.752;2023-05-08T09:12:47;101684.00;;;22.51;34.15
16613;BME280;8419;52.358;9.752;2023-05-08T09:15:33;101685.00;;;22.66;34.05
16613;BME280;8419;52.358;9.752;2023-05-08T09:18:18;101682.00;;;22.80;33.77
16613;BME280;8419;52.358;9.752;2023-05-08T09:21:05;101679.00;;;22.76;33.88
16613;BME280;8419;52.358;9.752;2023-05-08T09:23:57;101680.00;;;22.87;33.81
16613;BME280;8419;52.358;9.752;2023-05-08T09:26:43;101677.00;;;23.11;33.52
16613;BME280;8419;52.358;9.752;2023-05-08T09:29:28;101681.00;;;23.10;33.53
16613;BME280;8419;52.358;9.752;2023-05-08T09:32:17;101685.00;;;23.28;33.23
16613;BME280;8419;52.358;9.752;2023-05-08T09:35:03;101688.00;;;23.30;33.17
16613;BME280;8419;52.358;9.752;2023-05-08T09:37:49;101667.00;;;23.36;33.13
16613;BME280;8419;52.358;9.752;2023-05-08T09:40:36;101671.00;;;23.46;33.03
16613;BME280;8419;52.358;9.752;2023-05-08T09:43:22;101670.00;;;23.45;33.13
16613;BME280;8419;52.358;9.752;2023-05-08T09:46:21;101670.00;;;23.72;32.70
16613;BME280;8419;52.358;9.752;2023-05-08T09:49:16;101677.00;;;23.94;32.43
16613;BME280;8419;52.358;9.752;2023-05-08T09:52:02;101676.00;;;24.09;32.23
16613;BME280;8419;52.358;9.752;2023-05-08T09:54:56;101676.00;;;24.16;32.17
16613;BME280;8419;52.358;9.752;2023-05-08T09:57:52;101669.00;;;24.24;32.03
16613;BME280;8419;52.358;9.752;2023-05-08T10:00:40;101666.00;;;24.31;31.96
16613;BME280;8419;52.358;9.752;2023-05-08T10:03:45;101671.00;;;24.43;31.77
16613;BME280;8419;52.358;9.752;2023-05-08T10:06:33;101670.00;;;24.62;31.54
16613;BME280;8419;52.358;9.752;2023-05-08T10:09:22;101672.00;;;24.71;31.39
16613;BME280;8419;52.358;9.752;2023-05-08T10:15:16;101667.00;;;24.84;31.15
16613;BME280;8419;52.358;9.752;2023-05-08T10:18:04;101658.00;;;25.00;30.96
16613;BME280;8419;52.358;9.752;2023-05-08T10:20:51;101659.00;;;25.12;30.75
16613;BME280;8419;52.358;9.752;2023-05-08T10:23:39;101663.00;;;25.30;30.64
16613;BME280;8419;52.358;9.752;2023-05-08T10:26:30;101657.00;;;25.54;30.22
16613;BME280;8419;52.358;9.752;2023-05-08T10:29:25;101659.00;;;25.74;29.96
16613;BME280;8419;52.358;9.752;2023-05-08T10:32:15;101661.00;;;25.87;29.73
16613;BME280;8419;52.358;9.752;2023-05-08T10:35:09;101654.00;;;25.86;29.65
16613;BME280;8419;52.358;9.752;2023-05-08T10:37:55;101664.00;;;26.00;29.51
16613;BME280;8419;52.358;9.752;2023-05-08T10:40:41;101658.00;;;26.01;29.41
16613;BME280;8419;52.358;9.752;2023-05-08T10:43:30;101658.00;;;26.15;29.20
16613;BME280;8419;52.358;9.752;2023-05-08T10:46:28;101654.00;;;26.34;28.97
16613;BME280;8419;52.358;9.752;2023-05-08T10:49:21;101657.00;;;26.50;28.74
16613;BME280;8419;52.358;9.752;2023-05-08T10:52:15;101650.00;;;26.58;28.62
16613;BME280;8419;52.358;9.752;2023-05-08T10:55:13;101649.00;;;26.60;28.45
16613;BME280;8419;52.358;9.752;2023-05-08T10:58:08;101648.00;;;26.50;28.46
16613;BME280;8419;52.358;9.752;2023-05-08T11:01:15;101646.00;;;26.49;28.49
16613;BME280;8419;52.358;9.752;2023-05-08T11:04:19;101642.00;;;26.63;28.42
16613;BME280;8419;52.358;9.752;2023-05-08T11:07:05;101641.00;;;26.75;28.38
16613;BME280;8419;52.358;9.752;2023-05-08T11:09:58;101650.00;;;26.80;28.19
16613;BME280;8419;52.358;9.752;2023-05-08T11:12:51;101646.00;;;26.94;27.88
16613;BME280;8419;52.358;9.752;2023-05-08T11:15:39;101653.00;;;26.95;27.85
16613;BME280;8419;52.358;9.752;2023-05-08T11:18:25;101640.00;;;27.16;27.53
16613;BME280;8419;52.358;9.752;2023-05-08T11:21:18;101647.00;;;27.19;27.51
16613;BME280;8419;52.358;9.752;2023-05-08T11:24:15;101632.00;;;27.24;27.42
16613;BME280;8419;52.358;9.752;2023-05-08T11:27:00;101624.00;;;27.32;27.36
16613;BME280;8419;52.358;9.752;2023-05-08T11:30:18;101634.00;;;27.29;27.41
16613;BME280;8419;52.358;9.752;2023-05-08T11:33:29;101633.00;;;27.70;27.00
16613;BME280;8419;52.358;9.752;2023-05-08T11:36:17;101628.00;;;27.95;26.76
16613;BME280;8419;52.358;9.752;2023-05-08T11:39:06;101634.00;;;28.06;26.59
16613;BME280;8419;52.358;9.752;2023-05-08T11:41:53;101624.00;;;28.18;26.57
16613;BME280;8419;52.358;9.752;2023-05-08T11:44:39;101624.00;;;28.54;26.25
16613;BME280;8419;52.358;9.752;2023-05-08T11:47:35;101623.00;;;28.75;26.14
16613;BME280;8419;52.358;9.752;2023-05-08T11:50:25;101618.00;;;29.04;25.96
16613;BME280;8419;52.358;9.752;2023-05-08T11:53:10;101620.00;;;29.38;25.61
16613;BME280;8419;52.358;9.752;2023-05-08T11:55:56;101622.00;;;29.66;25.34
16613;BME280;8419;52.358;9.752;2023-05-08T11:58:42;101616.00;;;29.94;25.09
16613;BME280;8419;52.358;9.752;2023-05-08T12:01:28;101621.00;;;30.17;24.95
16613;BME280;8419;52.358;9.752;2023-05-08T12:04:14;101630.00;;;30.58;24.59
16613;BME280;8419;52.358;9.752;2023-05-08T12:07:01;101640.00;;;30.83;24.32
16613;BME280;8419;52.358;9.752;2023-05-08T12:09:47;101640.00;;;31.13;23.91
16613;BME280;8419;52.358;9.752;2023-05-08T12:12:36;101638.00;;;31.24;23.79
16613;BME280;8419;52.358;9.752;2023-05-08T12:15:23;101637.00;;;31.66;23.39
16613;BME280;8419;52.358;9.752;2023-05-08T12:18:09;101635.00;;;32.09;23.06
16613;BME280;8419;52.358;9.752;2023-05-08T12:20:57;101628.00;;;32.59;22.70
16613;BME280;8419;52.358;9.752;2023-05-08T12:23:43;101630.00;;;33.04;22.27
16613;BME280;8419;52.358;9.752;2023-05-08T12:26:28;101634.00;;;33.48;21.89
16613;BME280;8419;52.358;9.752;2023-05-08T12:29:22;101635.00;;;33.84;21.51
16613;BME280;8419;52.358;9.752;2023-05-08T12:32:08;101625.00;;;34.28;21.04
16613;BME280;8419;52.358;9.752;2023-05-08T12:34:55;101626.00;;;34.78;20.63
16613;BME280;8419;52.358;9.752;2023-05-08T12:37:41;101627.00;;;35.41;20.09
16613;BME280;8419;52.358;9.752;2023-05-08T12:40:27;101624.00;;;35.85;19.69
16613;BME280;8419;52.358;9.752;2023-05-08T12:43:14;101627.00;;;36.27;19.22
16613;BME280;8419;52.358;9.752;2023-05-08T12:46:00;101623.00;;;36.83;18.82
16613;BME280;8419;52.358;9.752;2023-05-08T12:49:00;101625.00;;;37.39;18.30
16613;BME280;8419;52.358;9.752;2023-05-08T12:51:46;101640.00;;;37.94;17.85
16613;BME280;8419;52.358;9.752;2023-05-08T12:54:46;101626.00;;;38.11;17.67
16613;BME280;8419;52.358;9.752;2023-05-08T12:57:32;101627.00;;;38.45;17.35
16613;BME280;8419;52.358;9.752;2023-05-08T13:00:22;101628.00;;;38.58;17.14
16613;BME280;8419;52.358;9.752;2023-05-08T13:06:26;101616.00;;;37.70;17.48
16613;BME280;8419;52.358;9.752;2023-05-08T13:09:17;101620.00;;;37.74;17.41
16613;BME280;8419;52.358;9.752;2023-05-08T13:12:03;101613.00;;;37.48;17.57
16613;BME280;8419;52.358;9.752;2023-05-08T13:14:51;101614.00;;;37.45;17.59
16613;BME280;8419;52.358;9.752;2023-05-08T13:17:36;101612.00;;;37.87;17.27
16613;BME280;8419;52.358;9.752;2023-05-08T13:20:24;101604.00;;;38.51;16.78
16613;BME280;8419;52.358;9.752;2023-05-08T13:23:10;101607.00;;;38.54;16.72
16613;BME280;8419;52.358;9.752;2023-05-08T13:25:56;101602.00;;;38.36;16.84
16613;BME280;8419;52.358;9.752;2023-05-08T13:28:42;101593.00;;;38.67;16.65
16613;BME280;8419;52.358;9.752;2023-05-08T13:31:28;101599.00;;;39.43;16.00
16613;BME280;8419;52.358;9.752;2023-05-08T13:34:13;101587.00;;;39.15;16.18
16613;BME280;8419;52.358;9.752;2023-05-08T13:36:58;101585.00;;;39.12;16.19
16613;BME280;8419;52.358;9.752;2023-05-08T13:39:44;101580.00;;;39.23;16.12
16613;BME280;8419;52.358;9.752;2023-05-08T13:42:30;101569.00;;;39.81;15.67
16613;BME280;8419;52.358;9.752;2023-05-08T13:45:16;101563.00;;;40.17;15.41
16613;BME280;8419;52.358;9.752;2023-05-08T13:48:02;101568.00;;;40.34;15.30
16613;BME280;8419;52.358;9.752;2023-05-08T13:50:47;101559.00;;;41.09;14.84
16613;BME280;8419;52.358;9.752;2023-05-08T13:53:33;101564.00;;;42.06;14.23
16613;BME280;8419;52.358;9.752;2023-05-08T13:56:18;101563.00;;;42.86;13.73
16613;BME280;8419;52.358;9.752;2023-05-08T13:59:07;101556.00;;;43.44;13.41
16613;BME280;8419;52.358;9.752;2023-05-08T14:01:53;101552.00;;;44.03;13.07
16613;BME280;8419;52.358;9.752;2023-05-08T14:04:38;101543.00;;;44.16;13.00
16613;BME280;8419;52.358;9.752;2023-05-08T14:07:24;101552.00;;;43.64;13.34
16613;BME280;8419;52.358;9.752;2023-05-08T14:10:12;101548.00;;;43.75;13.25
16613;BME280;8419;52.358;9.752;2023-05-08T14:12:57;101539.00;;;44.25;12.87
16613;BME280;8419;52.358;9.752;2023-05-08T14:15:43;101541.00;;;44.43;12.69
16613;BME280;8419;52.358;9.752;2023-05-08T14:18:29;101543.00;;;43.92;13.00
16613;BME280;8419;52.358;9.752;2023-05-08T14:21:15;101540.00;;;43.31;13.27
16613;BME280;8419;52.358;9.752;2023-05-08T14:24:01;101536.00;;;42.31;13.83
16613;BME280;8419;52.358;9.752;2023-05-08T14:26:46;101536.00;;;41.55;14.24
16613;BME280;8419;52.358;9.752;2023-05-08T14:29:31;101539.00;;;41.18;14.41
16613;BME280;8419;52.358;9.752;2023-05-08T14:32:16;101520.00;;;41.32;14.30
16613;BME280;8419;52.358;9.752;2023-05-08T14:35:02;101531.00;;;41.71;14.01
16613;BME280;8419;52.358;9.752;2023-05-08T14:37:48;101525.00;;;40.92;14.48
16613;BME280;8419;52.358;9.752;2023-05-08T14:40:33;101522.00;;;40.08;14.99
16613;BME280;8419;52.358;9.752;2023-05-08T14:43:19;101519.00;;;39.14;15.54
16613;BME280;8419;52.358;9.752;2023-05-08T14:46:04;101514.00;;;38.68;15.86
16613;BME280;8419;52.358;9.752;2023-05-08T14:48:50;101506.00;;;39.43;15.38
16613;BME280;8419;52.358;9.752;2023-05-08T14:51:35;101509.00;;;40.35;14.73
16613;BME280;8419;52.358;9.752;2023-05-08T14:54:21;101505.00;;;41.03;14.23
16613;BME280;8419;52.358;9.752;2023-05-08T14:57:06;101499.00;;;40.56;14.49
16613;BME280;8419;52.358;9.752;2023-05-08T14:59:51;101499.00;;;40.26;14.71
16613;BME280;8419;52.358;9.752;2023-05-08T15:02:39;101499.00;;;40.39;14.64